Rapids City, Illinois
Current Conditions -  °F | °C
As of 11:52 AM on Thursday 27 Nov 2014 (Local Time) from KDVN Reporting Station
Clear Clear  
Wind Chill:   Ceiling: Unl
Heat Index: 18°   Visibility: 10mi
Dew Point: 10°   Wind: 15mph
Humidity: 71%   Direction: 300°WNW
Pressure: 30.42"   Gusts: NA
Location:  41.58°N, 90.34°W
Report Text: KDVN 271752Z AUTO 30013KT 10SM CLR M08/M12 A3042 RMK AO2 SLP316 60000 T10781122 11039 21083 58002
Loading
Personal Weather Stations






























Interactive Weather Map New forecast layout! Learn more

10-Day Weather Forecast

Advertisements
Track Severe Weather on mobile